Flight Track Log - Related Links

Times and Time Zones

All times are in EST time to prevent confusion due to time zone crossing. See the UAL1260 flight status page for this flight to view local times or setup timezone preferences in your user account.

Time Position Orientation Groundspeed Altitude Reporting Facility
EST Latitude Longitude Course Direction KTS MPH feet Rate Location/Type
Sun 11:45:43 AM 29.9528 -95.3375 103° East 181 208 900  Level Houston Center
Sun 11:46:01 AM 29.9428 -95.3217 126° Southeast 189 217 1,400 1,975 Climbing Houston Center
Sun 11:47:02 AM 29.9344 -95.2528 98° East 221 254 3,500 1,886 Climbing Houston Center
Sun 11:47:11 AM 29.9350 -95.2472 83° East 209 241 3,600 545 Climbing Houston Center
Sun 11:47:57 AM 29.9342 -95.1828 91° East 267 307 4,000 290 Climbing Houston Center
Sun 11:48:13 AM 29.9400 -95.1639 70° East 257 296 3,900 1,615 Descending Houston Center
Sun 11:49:00 AM 29.8310 -94.7563 85° East  Level Estimated
Sun 11:49:15 AM 29.9569 -95.0803 77° East 267 307 6,100  Level Houston Center
Sun 11:50:00 AM 29.7922 -94.6103 98° East  Level Estimated
Sun 11:50:17 AM 29.9372 -94.9919 104° East 284 327 8,800  Level Houston Center
Sun 11:51:00 AM 29.7533 -94.4644 103° East  Level Estimated
Sun 11:51:19 AM 29.9056 -94.8978 111° Southeast 309 356 10,500  Level Houston Center
Sun 11:52:21 AM 29.8714 -94.7911 110° East 348 400 12,400 1,935 Climbing Houston Center
Sun 11:53:23 AM 29.8322 -94.6764 111° Southeast 378 435 14,500 2,274 Climbing Houston Center
Sun 11:54:25 AM 29.7850 -94.5333 111° Southeast 395 455 17,100 1,935 Climbing Houston Center
Sun 11:55:27 AM 29.7447 -94.4117 111° Southeast 404 465 18,500 1,488 Climbing Houston Center
Sun 11:56:30 AM 29.7133 -94.2797 105° East 426 490 20,200 1,488 Climbing Houston Center
Sun 11:57:32 AM 29.7003 -94.1517 97° East 436 502 21,600 1,452 Climbing Houston Center
Sun 11:58:34 AM 29.6856 -93.9800 96° East 453 521 23,200 1,355 Climbing Houston Center
Sun 11:59:36 AM 29.6844 -93.8297 90° East 468 539 24,400 1,210 Climbing Houston Center
Sun 12:00:38 PM 29.6553 -93.6806 103° East 479 551 25,700 1,210 Climbing Houston Center
Sun 12:01:40 PM 29.6247 -93.5306 103° East 484 557 26,900 1,210 Climbing Houston Center
Sun 12:02:42 PM 29.5867 -93.3469 103° East 495 570 28,200 968 Climbing Houston Center
Sun 12:03:44 PM 29.5553 -93.1908 103° East 504 580 28,900 871 Climbing Houston Center
Sun 12:04:46 PM 29.5219 -93.0311 103° East 514 592 30,000 1,210 Climbing Houston Center
Sun 12:05:48 PM 29.4900 -92.8733 103° East 512 589 31,400 1,016 Climbing Houston Center
Sun 12:06:50 PM 29.4564 -92.7167 104° East 509 586 32,100 768 Climbing Houston Center
Sun 12:07:53 PM 29.4233 -92.5581 103° East 512 589 33,000 864 Climbing Houston Center
Sun 12:08:55 PM 29.3836 -92.3672 103° East 517 595 33,900 726 Climbing Houston Center
Sun 12:09:57 PM 29.3486 -92.2089 104° East 513 590 34,500 484 Climbing Houston Center
Sun 12:10:59 PM 29.3136 -92.0494 104° East 518 596 34,900 194 Climbing Houston Center
Sun 12:12:01 PM 29.2786 -91.8889 104° East 519 597 34,900  Level Houston Center
Sun 12:13:03 PM 29.2419 -91.7161 104° East 523 602 34,900  Level Houston Center
Sun 12:14:05 PM 29.2064 -91.5544 104° East 524 603 34,900  Level Houston Center
Sun 12:15:07 PM 29.1719 -91.3961 104° East 518 596 34,900  Level Houston Center
Sun 12:16:09 PM 29.1300 -91.2056 104° East 518 596 34,900  Level Houston Center
Sun 12:17:11 PM 29.0936 -91.0464 105° East 519 597 34,900  Level Houston Center
Sun 12:18:14 PM 29.0589 -90.8883 104° East 517 595 34,900  Level Houston Center
Sun 12:19:16 PM 29.0231 -90.7317 105° East 514 592 34,900  Level Houston Center
Sun 12:20:18 PM 28.9883 -90.5761 104° East 509 586 34,900  Level Houston Center
Sun 12:21:20 PM 28.9439 -90.3889 105° East 511 588 34,900  Level Houston Center
Sun 12:22:22 PM 28.9097 -90.2328 104° East 510 587 34,900  Level Houston Center
Sun 12:23:24 PM 28.8775 -90.0744 103° East 514 592 34,900  Level Houston Center
Sun 12:24:26 PM 28.8447 -89.9183 103° East 512 589 34,900  Level Houston Center
Sun 12:25:28 PM 28.8106 -89.7603 104° East 514 592 34,900  Level Houston Center
Sun 12:26:30 PM 28.7772 -89.6033 104° East 514 592 34,900  Level Houston Center
Sun 12:27:33 PM 28.7356 -89.4125 104° East 519 597 34,900  Level Houston Center
Sun 12:28:35 PM 28.7017 -89.2536 104° East 518 596 34,900  Level Houston Center
Sun 12:29:37 PM 28.6667 -89.0956 104° East 517 595 34,900  Level Houston Center
Sun 12:30:39 PM 28.6314 -88.9378 104° East 518 596 34,900  Level Houston Center
Sun 12:31:41 PM 28.5878 -88.7836 108° East 516 594 34,900  Level Houston Center
Sun 12:32:43 PM 28.5381 -88.5961 107° East 516 594 34,900  Level Houston Center
Sun 12:33:45 PM 28.4975 -88.4394 106° East 519 597 34,900  Level Houston Center
Sun 12:34:47 PM 28.4564 -88.2847 107° East 515 593 34,900  Level Houston Center
Sun 12:35:49 PM 28.4153 -88.1286 107° East 516 594 34,900  Level Houston Center
Sun 12:36:52 PM 28.3689 -87.9586 107° East 513 590 34,900  Level Houston Center
Sun 12:37:54 PM 28.3289 -87.8039 106° East 515 593 34,900  Level Houston Center
Sun 12:38:56 PM 28.2861 -87.6494 107° East 514 592 34,900  Level Houston Center
Sun 12:39:58 PM 28.2444 -87.4953 107° East 514 592 34,900  Level Houston Center
Sun 12:41:00 PM 28.1928 -87.3106 108° East 513 590 34,900  Level Houston Center
Sun 12:42:02 PM 28.1508 -87.1583 107° East 510 587 34,900  Level Houston Center
Sun 12:42:57 PM 28.1169 -87.0292 107° East 515 593 34,900  Level Jacksonville Center
Sun 12:43:57 PM 28.0736 -86.8792 108° East 510 587 34,900  Level Jacksonville Center
Sun 12:44:57 PM 28.0303 -86.7269 108° East 510 587 34,900  Level Jacksonville Center
Sun 12:45:57 PM 27.9867 -86.5728 108° East 498 573 34,900  Level Jacksonville Center
Sun 12:46:57 PM 27.9431 -86.4161 107° East 505 581 34,900  Level Jacksonville Center
Sun 12:47:57 PM 27.8992 -86.2667 108° East 514 592 34,900  Level Jacksonville Center
Sun 12:48:57 PM 27.8572 -86.1128 107° East 513 590 34,900  Level Jacksonville Center
Sun 12:49:57 PM 27.8111 -85.9542 108° East 505 581 34,900  Level Jacksonville Center
Sun 12:52:27 PM 27.6972 -85.5603 108° East 536 617 34,900  Level Miami Center
Sun 12:53:26 PM 27.6542 -85.4094 108° East 515 593 34,900  Level Miami Center
Sun 12:54:26 PM 27.6144 -85.2708 108° East 530 610 34,900  Level Miami Center
Sun 12:55:26 PM 27.5689 -85.1181 109° East 520 598 34,900  Level Miami Center
Sun 12:56:26 PM 27.5194 -84.9647 110° East 520 598 34,900  Level Miami Center
Sun 12:57:26 PM 27.4714 -84.8164 110° East 520 598 34,900  Level Miami Center
Sun 12:58:26 PM 27.4294 -84.6664 107° East 513 590 34,900  Level Miami Center
Sun 12:59:27 PM 27.3747 -84.5225 113° Southeast 501 577 34,900  Level Miami Center
Sun 01:00:26 PM 27.3258 -84.3817 111° Southeast 493 567 34,900  Level Miami Center
Sun 01:01:26 PM 27.2644 -84.2375 116° Southeast 493 567 34,900  Level Miami Center
Sun 01:02:26 PM 27.2111 -84.0942 113° Southeast 493 567 34,900  Level Miami Center
Sun 01:03:26 PM 27.1578 -83.9533 113° Southeast 488 562 34,900  Level Miami Center
Sun 01:04:26 PM 27.1042 -83.8103 113° Southeast 488 562 34,900  Level Miami Center
Sun 01:05:26 PM 27.0483 -83.6672 114° Southeast 488 562 34,900  Level Miami Center
Sun 01:06:26 PM 26.9967 -83.5267 112° Southeast 488 562 34,900  Level Miami Center
Sun 01:07:26 PM 26.9386 -83.3814 114° Southeast 488 562 34,900  Level Miami Center
Sun 01:08:26 PM 26.8747 -83.2219 114° Southeast 499 574 34,900  Level Miami Center
Sun 01:09:26 PM 26.8225 -83.0797 112° Southeast 499 574 34,900  Level Miami Center
Sun 01:10:26 PM 26.7619 -82.9347 115° Southeast 499 574 34,900  Level Miami Center
Sun 01:11:26 PM 26.7072 -82.7925 113° Southeast 499 574 34,900  Level Miami Center
Sun 01:12:26 PM 26.6483 -82.6453 114° Southeast 505 581 34,900  Level Miami Center
Sun 01:13:26 PM 26.5936 -82.5011 113° Southeast 505 581 34,900  Level Miami Center
Sun 01:14:27 PM 26.5364 -82.3569 114° Southeast 505 581 34,900  Level Miami Center
Sun 01:15:26 PM 26.4769 -82.2150 115° Southeast 505 581 34,900  Level Miami Center
Sun 01:16:27 PM 26.4214 -82.0803 115° Southeast 505 581 34,900  Level Miami Center
Sun 01:17:26 PM 26.3756 -81.9578 113° Southeast 505 581 34,900  Level Miami Center
Sun 01:18:26 PM 26.3122 -81.7975 114° Southeast 505 581 34,900  Level Miami Center
Sun 01:19:26 PM 26.2544 -81.6539 114° Southeast 510 587 34,900  Level Miami Center
Sun 01:20:26 PM 26.1944 -81.5103 115° Southeast 510 587 34,900  Level Miami Center
Sun 01:21:26 PM 26.1361 -81.3669 114° Southeast 510 587 34,900  Level Miami Center
Sun 01:22:26 PM 26.0778 -81.2236 114° Southeast 510 587 34,900  Level Miami Center
Sun 01:23:26 PM 26.0214 -81.0831 114° Southeast 510 587 34,900  Level Miami Center
Sun 01:24:26 PM 25.9628 -80.9400 114° Southeast 510 587 34,900  Level Miami Center
Sun 01:25:26 PM 25.9042 -80.7994 115° Southeast 510 587 34,900  Level Miami Center
Sun 01:26:26 PM 25.8431 -80.6542 115° Southeast 510 587 34,900  Level Miami Center
Sun 01:27:26 PM 25.7903 -80.5119 112° Southeast 510 587 34,900  Level Miami Center
Sun 01:28:26 PM 25.7250 -80.3622 116° Southeast 516 594 34,900  Level Miami Center
Sun 01:29:26 PM 25.6614 -80.2222 117° Southeast 511 588 34,900  Level Miami Center
Sun 01:30:26 PM 25.5958 -80.0706 116° Southeast 506 582 34,900  Level Miami Center
Sun 01:31:26 PM 25.5322 -79.9286 116° Southeast 506 582 34,900  Level Miami Center
Sun 01:32:26 PM 25.4703 -79.7911 116° Southeast 501 577 34,900  Level Miami Center
Sun 01:33:26 PM 25.4061 -79.6492 117° Southeast 501 577 34,900  Level Miami Center
Sun 01:34:26 PM 25.3417 -79.5100 117° Southeast 501 577 34,900  Level Miami Center
Sun 01:35:26 PM 25.2794 -79.3683 116° Southeast 501 577 34,900  Level Miami Center
Sun 01:36:26 PM 25.2150 -79.2292 117° Southeast 501 577 34,900  Level Miami Center
Sun 01:37:26 PM 25.1503 -79.0903 117° Southeast 501 577 34,900  Level Miami Center
Sun 01:38:26 PM 25.0894 -78.9514 116° Southeast 501 577 34,900  Level Miami Center
Sun 01:39:26 PM 25.0306 -78.8336 119° Southeast 495 570 34,900  Level Miami Center
Sun 01:40:26 PM 24.9697 -78.6950 116° Southeast 495 570 34,900  Level Miami Center
Sun 01:41:26 PM 24.9022 -78.5589 119° Southeast 495 570 34,900  Level Miami Center
Sun 01:42:26 PM 24.8411 -78.4231 116° Southeast 495 570 34,900  Level Miami Center
Sun 01:43:26 PM 24.7797 -78.2894 117° Southeast 495 570 34,900  Level Miami Center
Sun 01:44:26 PM 24.7142 -78.1558 118° Southeast 495 570 34,900  Level Miami Center
Sun 01:45:26 PM 24.6525 -78.0206 117° Southeast 495 570 34,900  Level Miami Center
Sun 01:46:26 PM 24.5908 -77.8850 117° Southeast 495 570 34,900  Level Miami Center
Sun 01:47:27 PM 24.5247 -77.7475 118° Southeast 495 570 34,900  Level Miami Center
Sun 01:48:26 PM 24.4608 -77.6122 117° Southeast 495 570 34,900  Level Miami Center
Sun 01:49:26 PM 24.3967 -77.4772 118° Southeast 495 570 34,900  Level Miami Center
Sun 01:50:26 PM 24.3344 -77.3447 117° Southeast 495 570 34,900  Level Miami Center
Sun 01:51:26 PM 24.2700 -77.2078 117° Southeast 495 570 34,900  Level Miami Center
Sun 01:52:26 PM 24.2056 -77.0731 118° Southeast 495 570 34,900  Level Miami Center
Sun 01:53:26 PM 24.1408 -76.9408 118° Southeast 495 570 34,900  Level Miami Center
Sun 01:54:26 PM 24.0719 -76.7928 117° Southeast 490 564 34,900  Level Miami Center
Sun 01:55:26 PM 24.0069 -76.6586 118° Southeast 496 571 34,900  Level Miami Center
Sun 01:56:26 PM 23.9419 -76.5225 118° Southeast 496 571 34,900  Level Miami Center
Sun 01:57:27 PM 23.8789 -76.3908 118° Southeast 496 571 34,900  Level Miami Center
Sun 01:58:26 PM 23.8156 -76.2592 118° Southeast 491 565 34,900  Level Miami Center
Sun 01:59:26 PM 23.7522 -76.1278 118° Southeast 491 565 34,900  Level Miami Center
Sun 02:00:26 PM 23.6889 -75.9967 118° Southeast 491 565 34,900  Level Miami Center
Sun 02:01:26 PM 23.6275 -75.8678 117° Southeast 491 565 34,900  Level Miami Center
Sun 02:02:26 PM 23.5639 -75.7300 117° Southeast 497 572 34,900  Level Miami Center
Sun 02:03:26 PM 23.5022 -75.6083 119° Southeast 502 578 34,900  Level Miami Center
Sun 02:04:26 PM 23.4342 -75.4797 120° Southeast 495 570 34,900  Level Miami Center
Sun 02:05:26 PM 23.3703 -75.3492 118° Southeast 489 563 34,900  Level Miami Center
Sun 02:06:26 PM 23.3042 -75.2189 119° Southeast 489 563 34,900  Level Miami Center
Sun 02:07:26 PM 23.2400 -75.0908 119° Southeast 489 563 34,900  Level Miami Center
Sun 02:08:26 PM 23.1717 -74.9606 120° Southeast 489 563 34,900  Level Miami Center
Sun 02:09:26 PM 23.1072 -74.8261 118° Southeast 489 563 34,900  Level Miami Center
Sun 02:10:26 PM 23.0428 -74.6961 118° Southeast 489 563 34,900  Level Miami Center
Sun 02:11:26 PM 22.9803 -74.5686 118° Southeast 489 563 34,900  Level Miami Center
Sun 02:12:26 PM 22.9114 -74.4392 120° Southeast 489 563 34,900  Level Miami Center
Sun 02:13:26 PM 22.8464 -74.3094 119° Southeast 489 563 34,900  Level Miami Center
Sun 02:14:26 PM 22.7794 -74.1825 120° Southeast 489 563 34,900  Level Miami Center
Sun 02:15:26 PM 22.7167 -74.0531 118° Southeast 489 563 34,900  Level Miami Center
Sun 02:16:26 PM 22.6517 -73.9264 119° Southeast 484 557 34,900  Level Miami Center
Sun 02:17:26 PM 22.5842 -73.7997 120° Southeast 484 557 34,900  Level Miami Center
Sun 02:18:26 PM 22.5189 -73.6664 118° Southeast 484 557 34,900  Level Miami Center
Sun 02:19:26 PM 22.4514 -73.5400 120° Southeast 484 557 34,900  Level Miami Center
Sun 02:20:26 PM 22.3856 -73.4025 117° Southeast 484 557 34,900  Level Miami Center
Sun 02:21:26 PM 22.3181 -73.2761 120° Southeast 479 551 34,900  Level Miami Center
Sun 02:22:26 PM 22.2522 -73.1481 119° Southeast 479 551 34,900  Level Miami Center
Sun 02:23:26 PM 22.1886 -73.0197 118° Southeast 479 551 34,900 400 Level Miami Center
Sun 02:24:26 PM 22.1247 -72.8961 119° Southeast 479 551 35,700 900 Climbing Miami Center
Sun 02:25:26 PM 22.0611 -72.7747 119° Southeast 479 551 36,700 595 Climbing Miami Center
Sun 02:26:27 PM 21.9950 -72.6517 120° Southeast 479 551 36,900 100 Climbing Miami Center
Sun 02:27:26 PM 21.9289 -72.5261 120° Southeast 479 551 36,900  Level Miami Center
Sun 02:28:26 PM 21.8650 -72.4053 120° Southeast 474 545 36,900  Level Miami Center
Sun 02:29:27 PM 21.8008 -72.2800 119° Southeast 474 545 36,900  Level Miami Center
Sun 02:30:26 PM 21.7344 -72.1572 120° Southeast 474 545 36,900  Level Miami Center
Sun 02:31:26 PM 21.6719 -72.0322 118° Southeast 474 545 36,900  Level Miami Center
Sun 02:32:26 PM 21.6056 -71.9097 120° Southeast 474 545 36,900  Level Miami Center
Sun 02:33:26 PM 21.5411 -71.7872 119° Southeast 474 545 36,900  Level Miami Center
Sun 02:34:26 PM 21.4767 -71.6692 120° Southeast 474 545 36,900  Level Miami Center
Sun 02:35:26 PM 21.4119 -71.5492 120° Southeast 469 540 36,900  Level Miami Center
Sun 02:36:26 PM 21.3472 -71.4294 120° Southeast 469 540 36,900  Level Miami Center
Sun 02:37:26 PM 21.2806 -71.3097 121° Southeast 464 534 36,900  Level Miami Center
Sun 02:38:26 PM 21.2156 -71.1878 120° Southeast 464 534 36,900  Level Miami Center
Sun 02:39:26 PM 21.1506 -71.0639 119° Southeast 469 540 36,900  Level Miami Center
Sun 02:40:26 PM 21.0897 -70.9442 119° Southeast 469 540 36,900  Level Miami Center
Sun 02:41:26 PM 21.0244 -70.8228 120° Southeast 469 540 36,900  Level Miami Center
Sun 02:42:27 PM 20.9611 -70.7014 119° Southeast 469 540 36,900  Level Miami Center
Sun 02:43:26 PM 20.8981 -70.5822 120° Southeast 469 540 36,900  Level Miami Center
Sun 02:44:26 PM 20.8306 -70.4589 120° Southeast 469 540 36,900  Level Miami Center
Sun 02:45:26 PM 20.7672 -70.3400 120° Southeast 469 540 36,900  Level Miami Center
Sun 02:46:26 PM 20.6994 -70.2192 121° Southeast 469 540 36,900  Level Miami Center
Sun 02:47:27 PM 20.6358 -70.0983 119° Southeast 469 540 36,900  Level Miami Center
Sun 02:48:26 PM 20.5703 -69.9800 121° Southeast 469 540 36,900  Level Miami Center
Sun 02:49:26 PM 20.5044 -69.8594 120° Southeast 469 540 36,900  Level Miami Center
Sun 02:50:26 PM 20.4386 -69.7367 120° Southeast 469 540 36,900  Level Miami Center
Sun 02:51:26 PM 20.3706 -69.6189 122° Southeast 469 540 36,900  Level Miami Center
Sun 02:52:26 PM 20.3086 -69.4983 119° Southeast 469 540 36,900  Level Miami Center
Sun 02:53:26 PM 20.2406 -69.3786 121° Southeast 469 540 36,900  Level Miami Center
Sun 02:54:26 PM 20.1744 -69.2586 120° Southeast 469 540 36,900  Level Miami Center
Sun 02:55:26 PM 20.1083 -69.1411 121° Southeast 469 540 36,900  Level Miami Center
Sun 02:56:26 PM 20.0503 -69.0208 117° Southeast 464 534 36,900  Level Miami Center
Sun 02:57:26 PM 19.9861 -68.9033 120° Southeast 464 534 36,900  Level Miami Center
Sun 02:58:26 PM 19.9278 -68.7814 117° Southeast 464 534 36,900  Level Miami Center
Sun 02:59:26 PM 19.8614 -68.6642 121° Southeast 464 534 36,900  Level Miami Center
Sun 03:00:27 PM 19.7986 -68.5406 118° Southeast 470 541 36,900  Level Miami Center
Sun 03:01:26 PM 19.7319 -68.4236 121° Southeast 470 541 36,900  Level Miami Center
Sun 03:02:26 PM 19.6711 -68.2978 117° Southeast 470 541 36,900  Level Miami Center
Sun 03:03:26 PM 19.6061 -68.1767 120° Southeast 470 541 36,900  Level Miami Center
Sun 03:04:26 PM 19.5414 -68.0556 120° Southeast 470 541 36,900  Level Miami Center
Sun 03:05:26 PM 19.4783 -67.9325 119° Southeast 470 541 36,900  Level Miami Center
Sun 03:06:26 PM 19.4150 -67.8094 119° Southeast 470 541 36,900  Level Miami Center
Sun 03:07:26 PM 19.3478 -67.6889 121° Southeast 470 541 36,900 -1,633 Level Miami Center
Sun 03:08:53 PM 19.2500 -67.5333 124° Southeast 470 541 32,900 -3,041 Descending San Juan Center
Sun 03:09:54 PM 19.1833 -67.4000 118° Southeast 480 552 29,400 -3,174 Descending San Juan Center
Sun 03:10:54 PM 19.1167 -67.2833 121° Southeast 480 552 26,500 -2,800 Descending San Juan Center
Sun 03:11:54 PM 19.0500 -67.1667 121° Southeast 470 541 23,800 -2,700 Descending San Juan Center
Sun 03:12:54 PM 18.9833 -67.0500 121° Southeast 450 518 21,100 -2,600 Descending San Juan Center
Sun 03:13:54 PM 18.9167 -66.9167 118° Southeast 430 495 18,600 -2,600 Descending San Juan Center
Sun 03:14:54 PM 18.8667 -66.8167 118° Southeast 410 472 15,900 -2,550 Descending San Juan Center
Sun 03:15:54 PM 18.8000 -66.7167 125° Southeast 400 460 13,500 -2,400 Descending San Juan Center
Sun 03:16:54 PM 18.7500 -66.6167 118° Southeast 380 437 11,100 -1,686 Descending San Juan Center
Sun 03:17:55 PM 18.7000 -66.5333 122° Southeast 340 391 10,100 -992 Descending San Juan Center
Sun 03:18:55 PM 18.6333 -66.4667 137° Southeast 310 357 9,100 -1,150 Descending San Juan Center
Sun 03:19:55 PM 18.5667 -66.4333 155° Southeast 280 322 7,800 -1,450 Descending San Juan Center
Sun 03:20:55 PM 18.5000 -66.3833 145° Southeast 270 311 6,200 -1,300 Descending San Juan Center
Sun 03:21:55 PM 18.4667 -66.3333 125° Southeast 260 299 5,200 -843 Descending San Juan Center
Sun 03:22:56 PM 18.4333 -66.2667 118° Southeast 240 276 4,500 -744 Descending San Juan Center
Sun 03:23:56 PM 18.4333 -66.2167 90° East 190 219 3,700 -908 Descending San Juan Center
Sun 03:24:55 PM 18.4333 -66.1500 90° East 180 207 2,700 -950 Descending San Juan Center
Sun 03:25:56 PM 18.4333 -66.1000 90° East 170 196 1,800 -793 Descending San Juan Center
Sun 03:26:56 PM 18.4333 -66.0667 90° East 140 161 1,100 -750 Descending San Juan Center
Sun 03:27:56 PM 18.4333 -66.0167 90° East 140 161 300 -800 Descending San Juan Center

Login

Don't have an account? Register now (free) for customized features, flight alerts, and more!